Latest Weather Observations for Westmere

IDV60801

Issued at 9:05 am EDT Thursday 23 October 2014 (issued every 30 minutes, with the page automatically refreshed every 10 minutes)

About weather observations | Map of weather stations | Latest weather observations for VIC | Other Formats
Station Details ID: 089112 Name: WESTMERE Lat: -37.71 Lon: 142.94 Height: 226.0 m
Data from the previous 72 hours. | See also: Recent months at Westmere
Date/Time
EDT
Temp
°C
App
Temp
°C
Dew
Point
Rel
Hum
%
Delta-T
°C
Wind Press
QNH
hPa
Press
MSL
hPa
Rain
since 9 am
mm
Dir
 
Spd
km/h
Gust
km/h
Spd
kts
Gust
kts
23/09:00am 12.6 10.9 12.6 100 0.0 SSE 13 20 7 11 1020.2 1020.3 0.0
23/08:30am 12.4 11.1 12.4 100 0.0 SSE 11 19 6 10 1020.1 1020.2 0.0
23/08:00am 12.2 10.8 12.2 100 0.0 S 11 15 6 8 1019.9 1020.0 0.0
23/07:30am 12.1 10.7 12.1 100 0.0 S 11 15 6 8 1019.8 1019.9 0.0
23/07:00am 11.9 10.8 11.9 100 0.0 S 9 15 5 8 1019.7 1019.8 0.0
23/06:30am 11.9 10.8 11.9 100 0.0 S 9 15 5 8 1019.5 1019.6 0.0
23/06:00am 11.9 11.2 11.9 100 0.0 S 7 11 4 6 1019.4 1019.4 0.0
23/05:30am 11.8 11.0 11.8 100 0.0 S 7 11 4 6 1019.3 1019.3 0.0
23/05:00am 11.7 10.1 11.7 100 0.0 SSE 11 15 6 8 1019.2 1019.2 0.0
23/04:30am 11.6 10.4 11.6 100 0.0 S 9 13 5 7 1019.4 1019.4 0.0
23/04:00am 11.6 9.6 11.6 100 0.0 S 13 17 7 9 1019.4 1019.4 0.0
23/03:30am 11.8 10.3 11.8 100 0.0 S 11 19 6 10 1019.3 1019.3 0.0
23/03:00am 11.8 10.7 11.8 100 0.0 S 9 15 5 8 1019.3 1019.3 0.0
23/02:30am 11.9 10.0 11.9 100 0.0 S 13 20 7 11 1019.5 1019.6 0.0
23/02:00am 12.0 9.7 11.8 99 0.1 SSW 15 22 8 12 1019.7 1019.8 0.0
23/01:30am 12.0 10.1 11.8 99 0.1 SSW 13 19 7 10 1019.8 1019.9 0.0
23/01:00am 12.3 10.5 12.1 99 0.1 S 13 17 7 9 1020.0 1020.1 0.0
23/12:30am 12.3 10.9 12.1 99 0.1 S 11 15 6 8 1020.0 1020.1 0.0
23/12:00am 12.3 10.9 12.3 100 0.0 SSW 11 17 6 9 1019.7 1019.8 0.0
 
Date/Time
EDT
Temp
°C
App
Temp
°C
Dew
Point
Rel
Hum
%
Delta-T
°C
Wind Press
QNH
hPa
Press
MSL
hPa
Rain
since 9 am
mm
Dir
 
Spd
km/h
Gust
km/h
Spd
kts
Gust
kts
22/11:30pm 12.6 11.6 12.4 99 0.1 SSW 9 15 5 8 1020.1 1020.2 0.0
22/11:00pm 12.6 10.9 12.6 100 0.0 S 13 20 7 11 1020.0 1020.1 0.0
22/10:30pm 12.7 10.7 12.7 100 0.0 SSW 15 20 8 11 1020.1 1020.2 0.0
22/10:00pm 12.9 10.9 12.7 99 0.1 SSW 15 20 8 11 1020.2 1020.3 0.0
22/09:30pm 13.2 10.5 13.0 99 0.1 SSW 19 30 10 16 1019.9 1020.0 0.0
22/09:00pm 13.8 11.0 13.3 97 0.3 SSW 20 30 11 16 1019.6 1019.7 0.0
22/08:30pm 14.9 13.7 14.1 95 0.5 SSW 13 22 7 12 1019.1 1019.1 0.0
22/08:00pm 15.7 14.5 13.9 89 1.0 SSW 13 20 7 11 1018.5 1018.5 0.0
22/07:30pm 17.2 15.4 13.3 78 2.2 SSW 15 22 8 12 1017.8 1017.8 0.0
22/07:00pm 19.7 18.4 13.6 68 3.5 W 13 20 7 11 1018.2 1018.2 0.0
22/06:30pm 22.1 20.2 12.9 56 5.3 W 15 24 8 13 1017.9 1017.9 0.0
22/06:00pm 22.3 19.1 11.1 49 6.3 SSW 19 30 10 16 1016.5 1016.6 0.0
22/05:30pm 25.1 21.3 12.3 45 7.4 S 24 35 13 19 1015.7 1015.7 0.0
22/05:00pm 25.9 21.0 13.7 47 7.3 SSW 32 43 17 23 1015.5 1015.5 0.0
22/04:30pm 28.0 26.5 16.3 49 7.3 S 19 26 10 14 1015.1 1015.1 0.0
22/04:00pm 30.9 26.9 6.7 22 13.1 NNW 17 28 9 15 1014.6 1014.6 0.0
22/03:30pm 33.3 29.4 7.3 20 14.4 NNW 17 30 9 16 1015.0 1015.0 0.0
22/03:00pm 33.5 29.5 8.2 21 14.3 NNW 19 30 10 16 1015.3 1015.3 0.0
22/02:30pm 32.0 28.3 10.1 26 12.6 N 20 28 11 15 1015.8 1015.9 0.0
22/02:00pm 30.3 26.9 9.2 27 11.9 NNW 17 28 9 15 1016.2 1016.3 0.0
22/01:30pm 29.5 25.9 8.5 27 11.7 NNW 17 26 9 14 1016.5 1016.6 0.0
22/01:00pm 29.0 25.2 9.2 29 11.1 NNW 19 26 10 14 1016.9 1017.0 0.0
22/12:30pm 28.8 24.9 9.5 30 10.9 N 20 26 11 14 1017.0 1017.1 0.0
22/12:00pm 29.8 26.0 9.9 29 11.3 N 20 30 11 16 1017.4 1017.4 0.0
22/11:30am 29.1 26.3 11.2 33 10.4 N 17 24 9 13 1017.8 1017.8 0.0
22/11:00am 28.6 24.8 11.2 34 10.0 N 22 30 12 16 1018.2 1018.2 0.0
22/10:30am 26.0 22.5 11.0 39 8.5 N 20 30 11 16 1018.3 1018.3 0.0
22/10:00am 24.5 21.4 11.5 44 7.4 NNE 19 30 10 16 1018.6 1018.6 0.0
22/09:30am 21.9 19.4 12.2 54 5.5 NNE 17 22 9 12 1018.5 1018.5 0.0
22/09:00am 20.2 17.5 11.7 58 4.8 N 17 22 9 12 1018.8 1018.8 0.0
22/08:30am 19.0 17.3 12.3 65 3.8 NNE 13 20 7 11 1018.9 1018.9 0.0
22/08:28am 18.7 16.9 12.2 66 3.6 NNE 13 19 7 10 1018.9 1018.9 0.0
22/08:00am 13.6 12.7 11.3 86 1.2 NE 7 9 4 5 1019.3 1019.3 0.0
22/07:30am 13.6 12.6 11.0 84 1.4 NNE 7 13 4 7 1019.1 1019.1 0.0
22/07:00am 13.2 12.2 10.2 82 1.6 NNE 6 7 3 4 1018.9 1018.9 0.0
22/06:30am 13.3 11.6 9.7 79 1.9 NE 9 15 5 8 1018.3 1018.3 0.0
22/06:00am 13.3 11.2 9.9 80 1.8 NNE 11 17 6 9 1018.4 1018.4 0.0
22/05:30am 14.5 11.4 10.3 76 2.2 N 17 20 9 11 1018.4 1018.4 0.0
22/05:00am 12.4 9.7 10.3 87 1.1 N 15 17 8 9 1018.6 1018.6 0.0
22/04:30am 10.9 8.3 9.5 91 0.7 N 13 15 7 8 1018.8 1018.8 0.0
22/04:00am 9.4 6.8 9.3 99 0.0 NNE 13 13 7 7 1019.0 1019.0 0.0
22/03:30am 7.6 4.9 7.2 97 0.2 NNE 11 13 6 7 1019.1 1019.1 0.0
22/03:00am 7.1 4.9 6.4 95 0.3 NNE 7 9 4 5 1019.3 1019.3 0.0
22/02:30am 8.0 6.0 6.9 93 0.5 N 7 9 4 5 1019.7 1019.8 0.0
22/02:00am 8.6 6.8 7.2 91 0.7 N 6 6 3 3 1020.0 1020.1 0.0
22/01:30am 9.8 8.1 8.4 91 0.7 NNE 7 13 4 7 1020.3 1020.4 0.0
22/01:00am 9.7 7.1 7.8 88 0.9 N 11 15 6 8 1020.6 1020.7 0.0
22/12:30am 9.9 7.4 8.0 88 0.9 NNE 11 15 6 8 1021.0 1021.1 0.0
22/12:00am 11.2 8.1 8.8 85 1.2 N 15 15 8 8 1021.4 1021.5 0.0
 
Date/Time
EDT
Temp
°C
App
Temp
°C
Dew
Point
Rel
Hum
%
Delta-T
°C
Wind Press
QNH
hPa
Press
MSL
hPa
Rain
since 9 am
mm
Dir
 
Spd
km/h
Gust
km/h
Spd
kts
Gust
kts
21/11:30pm 11.1 8.4 8.8 86 1.2 NNE 13 15 7 8 1021.6 1021.7 0.0
21/11:00pm 11.3 8.7 9.2 87 1.1 NNE 13 15 7 8 1021.9 1021.9 0.0
21/10:30pm 11.8 10.8 9.0 83 1.4 NE 4 9 2 5 1022.0 1022.0 0.0
21/10:00pm 13.8 12.5 10.0 78 2.0 NE 7 7 4 4 1022.1 1022.1 0.0
21/09:30pm 14.3 12.0 10.3 77 2.1 NNE 13 15 7 8 1022.0 1022.0 0.0
21/09:00pm 14.3 12.3 10.3 77 2.1 NNE 11 13 6 7 1021.9 1021.9 0.0
21/08:30pm 15.0 13.0 10.2 73 2.5 NE 11 13 6 7 1021.6 1021.7 0.0
21/08:00pm 17.7 16.5 10.3 62 4.0 ENE 7 11 4 6 1021.6 1021.7 0.0
21/07:30pm 21.1 20.4 11.4 54 5.4 NE 6 6 3 3 1021.6 1021.7 0.0
21/07:00pm 25.3 23.8 9.2 36 8.8 NNE 7 11 4 6 1021.4 1021.5 0.0
21/06:30pm 27.5 25.6 6.8 27 11.1 NE 6 7 3 4 1021.2 1021.3 0.0
21/06:00pm 27.9 26.1 5.5 24 11.7 NE 4 9 2 5 1021.5 1021.6 0.0
21/05:30pm 27.2 25.4 7.1 28 10.8 N 6 9 3 5 1021.8 1021.8 0.0
21/05:00pm 26.6 23.8 7.1 29 10.4 N 11 17 6 9 1021.9 1021.9 0.0
21/04:30pm 27.6 25.7 7.5 28 10.9 NNW 7 13 4 7 1021.9 1021.9 0.0
21/04:00pm 28.5 25.6 4.7 22 12.3 N 9 19 5 10 1022.3 1022.3 0.0
21/03:30pm 28.6 25.6 7.8 27 11.4 N 13 22 7 12 1022.5 1022.5 0.0
21/03:00pm 28.1 25.1 6.2 25 11.6 N 11 20 6 11 1022.9 1022.9 0.0
21/02:30pm 26.8 23.8 6.2 27 10.8 NNE 11 17 6 9 1023.4 1023.5 0.0
21/02:00pm 27.5 23.9 5.1 24 11.6 N 13 24 7 13 1023.6 1023.7 0.0
21/01:30pm 26.7 22.9 5.6 26 11.0 NNE 15 24 8 13 1024.0 1024.1 0.0
21/01:00pm 26.4 22.5 5.4 26 10.8 NNE 15 22 8 12 1024.3 1024.4 0.0
21/12:30pm 25.1 21.4 8.1 34 9.2 N 17 24 9 13 1024.7 1024.8 0.0
21/12:00pm 23.4 20.1 9.4 41 7.6 N 17 24 9 13 1025.0 1025.1 0.0
21/11:30am 22.6 19.3 9.4 43 7.2 NNE 17 28 9 15 1025.2 1025.3 0.0
21/11:00am 21.0 18.8 10.8 52 5.6 NNE 13 19 7 10 1025.3 1025.4 0.0
21/10:30am 18.7 14.9 8.9 53 5.2 NNE 19 22 10 12 1025.6 1025.7 0.0
21/10:00am 16.5 14.3 7.7 56 4.4 N 9 13 5 7 1025.6 1025.7 0.0
21/09:30am 14.4 12.4 10.0 75 2.3 NNE 11 15 6 8 1025.5 1025.6 0.0
21/09:00am 11.0 9.2 9.6 91 0.7 NE 9 13 5 7 1025.7 1025.8 0.0
21/08:30am 8.0 6.2 7.9 99 0.0 ENE 7 9 4 5 1025.7 1025.8 0.0
21/08:00am 6.3 4.3 6.3 100 0.0 E 6 7 3 4 1025.6 1025.7 0.0
21/07:30am 4.3 1.7 4.2 99 0.0 ENE 7 7 4 4 1025.3 1025.4 0.0
21/07:00am 1.4 -1.5 1.3 99 0.0 NE 6 7 3 4 1025.2 1025.3 0.0
21/06:30am 1.5 -1.6 1.4 99 0.0 NE 7 11 4 6 1025.4 1025.5 0.0
21/06:00am 0.9 -2.3 0.8 99 0.0 ENE 7 9 4 5 1024.9 1025.0 0.0
21/05:30am 0.7 -2.3 0.6 99 0.0 E 6 7 3 4 1024.8 1024.9 0.0
21/05:00am 0.8 -1.8 0.7 99 0.0 E 4 6 2 3 1024.8 1024.9 0.0
21/04:30am 1.6 -1.3 1.5 99 0.0 E 6 7 3 4 1025.0 1025.1 0.0
21/04:00am 2.0 -0.8 1.9 99 0.0 ENE 6 7 3 4 1025.3 1025.4 0.0
21/03:30am 3.2 0.6 3.1 99 0.0 E 6 9 3 5 1025.4 1025.5 0.0
21/03:00am 4.1 1.1 4.0 99 0.0 E 9 11 5 6 1025.6 1025.7 0.0
21/02:30am 4.0 1.3 3.9 99 0.0 ESE 7 9 4 5 1026.0 1026.1 0.0
21/02:00am 3.3 0.1 3.2 99 0.0 ESE 9 9 5 5 1026.4 1026.4 0.0
21/01:30am 3.5 0.7 3.4 99 0.0 ESE 7 7 4 4 1026.9 1026.9 0.0
21/01:00am 4.5 2.5 4.4 99 0.0 E 4 4 2 2 1027.3 1027.4 0.0
21/12:30am 6.8 4.7 6.7 99 0.0 E 7 11 4 6 1027.3 1027.4 0.0
21/12:00am 6.7 4.2 6.6 99 0.0 E 9 11 5 6 1027.4 1027.5 0.0
 
Date/Time
EDT
Temp
°C
App
Temp
°C
Dew
Point
Rel
Hum
%
Delta-T
°C
Wind Press
QNH
hPa
Press
MSL
hPa
Rain
since 9 am
mm
Dir
 
Spd
km/h
Gust
km/h
Spd
kts
Gust
kts
20/11:30pm 7.3 4.6 7.2 99 0.0 ESE 11 15 6 8 1027.4 1027.5 0.0
20/11:00pm 7.6 4.6 7.5 99 0.0 ESE 13 15 7 8 1027.5 1027.6 0.0
20/10:30pm 7.8 4.8 7.7 99 0.0 ESE 13 15 7 8 1027.7 1027.8 0.0
20/10:00pm 7.9 4.9 7.8 99 0.0 ESE 13 17 7 9 1027.9 1028.0 0.0
20/09:30pm 8.4 5.5 8.0 97 0.2 ESE 13 17 7 9 1028.0 1028.1 0.0
20/09:00pm 9.3 6.4 8.2 93 0.5 ESE 13 22 7 12 1028.0 1028.1 0.0
20/08:30pm 10.0 6.7 8.1 88 0.9 ESE 15 20 8 11 1027.9 1028.0 0.0
20/08:00pm 11.3 7.2 8.0 80 1.6 ESE 19 28 10 15 1027.5 1027.6 0.0
20/07:30pm 12.6 8.2 7.5 71 2.5 ESE 20 26 11 14 1027.3 1027.4 0.0
20/07:00pm 13.9 8.6 6.7 62 3.5 ESE 24 32 13 17 1027.1 1027.2 0.0
20/06:30pm 15.1 9.3 6.4 56 4.3 ESE 26 35 14 19 1027.1 1027.2 0.0
20/06:00pm 16.2 10.5 6.6 53 4.7 ESE 26 33 14 18 1027.2 1027.3 0.0
20/05:30pm 17.0 11.4 5.6 47 5.6 ESE 24 32 13 17 1027.3 1027.4 0.0
20/05:00pm 17.4 11.8 5.4 45 5.8 ESE 24 33 13 18 1027.3 1027.4 0.0
20/04:30pm 17.7 11.6 4.6 42 6.3 SE 26 35 14 19 1027.3 1027.4 0.0
20/04:00pm 17.6 11.2 3.1 38 6.7 ESE 26 37 14 20 1027.4 1027.5 0.0
20/03:30pm 18.0 11.7 3.9 39 6.7 SE 26 43 14 23 1027.6 1027.7 0.0
20/03:00pm 17.8 12.3 4.0 40 6.5 ESE 22 33 12 18 1027.9 1028.0 0.0
20/02:30pm 18.1 12.4 4.7 41 6.5 SE 24 37 13 20 1028.1 1028.2 0.0
20/02:00pm 17.7 11.9 4.6 42 6.3 ESE 24 39 13 21 1028.4 1028.5 0.0
20/01:30pm 17.4 11.1 4.0 41 6.4 ESE 26 35 14 19 1028.5 1028.6 0.0
20/01:00pm 17.1 10.9 4.1 42 6.1 ESE 26 44 14 24 1028.8 1028.9 0.0
20/12:30pm 16.2 10.7 3.9 44 5.8 ESE 22 33 12 18 1029.2 1029.3 0.0
20/12:00pm 15.8 10.0 4.5 47 5.3 ESE 24 37 13 20 1029.6 1029.7 0.0
20/11:30am 15.2 9.5 4.9 50 4.9 ESE 24 37 13 20 1030.0 1030.1 0.0
20/11:00am 14.1 7.8 3.8 50 4.7 SE 26 37 14 20 1030.1 1030.2 0.0
20/10:30am 13.4 6.8 4.0 53 4.3 SE 28 39 15 21 1030.3 1030.4 0.0
20/10:00am 12.6 5.7 4.6 58 3.7 ESE 30 41 16 22 1030.2 1030.3 0.0
20/09:30am 11.5 4.2 4.7 63 3.1 ESE 32 44 17 24 1030.1 1030.2 0.0

Other Formats:

Comma delimited format used in spreadsheet applications
http://www.bom.gov.au/fwo/IDV60801/IDV60801.95840.axf

JavaScript Object Notation format (JSON) in row-major order
http://www.bom.gov.au/fwo/IDV60801/IDV60801.95840.json